Terminal Aerodrome Forecast
Issued by NWS

Home | Current Version | Previous Version | Text Only | Print | Product List | Glossary On
Versions: 1 2 3 4 5 6 7 8 9 10 11 12 13 14
000
FTUS44 KEPZ 281720
TAFDMN
TAF
KDMN 281720Z 2818/2918 24015G25KT P6SM SKC
     FM282000 24025G35KT 6SM BLDU FEW110
      TEMPO 2820/2824 2SM BLDU
     FM290200 26014KT P6SM FEW080
     FM290500 27007KT P6SM FEW080
     FM291500 28015G25KT P6SM FEW070=

USA.gov is the U.S. government's official web portal to all federal, state and local government web resources and services.